Time;durP1;ratioP1;P1;durP2;ratioP2;P2;SDS_P1;SDS_P2;PMS_P1;PMS_P2;Temp;Humidity;BMP_temperature;BMP_pressure;BME280_temperature;BME280_humidity;BME280_pressure;Samples;Min_cycle;Max_cycle;Signal;HPM_P1;HPM_P2
2023/12/12 00:00:07;;;;;;;13.65;4.85;;;;;;;6.33;100.00;100655.03;5138706;29;20039;-82
2023/12/12 00:02:38;;;;;;;19.50;6.40;;;;;;;6.34;100.00;100659.34;5138306;29;20054;-82
2023/12/12 00:05:09;;;;;;;16.07;4.87;;;;;;;6.34;100.00;100674.88;5138907;29;20067;-82
2023/12/12 00:07:41;;;;;;;13.00;5.27;;;;;;;6.34;100.00;100665.41;5136900;28;20031;-81
2023/12/12 00:10:12;;;;;;;21.87;6.80;;;;;;;6.41;100.00;100667.97;5136196;29;20052;-81
2023/12/12 00:12:44;;;;;;;19.37;6.10;;;;;;;6.48;100.00;100668.00;5136104;28;20075;-81
2023/12/12 00:15:15;;;;;;;18.20;5.37;;;;;;;6.54;100.00;100673.19;5137507;29;20036;-81
2023/12/12 00:17:46;;;;;;;16.07;5.47;;;;;;;6.56;100.00;100671.47;5209989;28;20037;-81
2023/12/12 00:20:18;;;;;;;16.07;5.60;;;;;;;6.51;100.00;100675.78;5241259;28;20165;-82
2023/12/12 00:22:49;;;;;;;18.10;5.87;;;;;;;6.53;100.00;100678.38;5241418;28;20369;-82
2023/12/12 00:25:21;;;;;;;16.93;5.87;;;;;;;6.46;100.00;100661.97;5241362;28;20069;-81
2023/12/12 00:27:52;;;;;;;17.97;6.17;;;;;;;6.35;100.00;100667.09;5241505;28;20075;-81
2023/12/12 00:30:25;;;;;;;17.70;5.53;;;;;;;6.32;100.00;100661.06;5245174;28;20041;-81
2023/12/12 00:32:56;;;;;;;19.73;5.70;;;;;;;6.32;100.00;100666.25;5245512;28;20033;-81
2023/12/12 00:35:28;;;;;;;17.77;5.93;;;;;;;6.25;100.00;100664.47;5245379;28;20123;-81
2023/12/12 00:37:59;;;;;;;24.60;6.40;;;;;;;6.18;100.00;100669.66;5243462;28;20033;-81
2023/12/12 00:40:32;;;;;;;22.30;6.67;;;;;;;6.17;100.00;100669.66;5244514;28;20392;-81
2023/12/12 00:43:03;;;;;;;22.75;6.40;;;;;;;6.07;100.00;100661.00;5245022;28;20036;-80
2023/12/12 00:45:35;;;;;;;20.27;5.83;;;;;;;6.02;100.00;100654.91;5245441;28;20031;-81
2023/12/12 00:48:06;;;;;;;25.47;7.17;;;;;;;5.95;100.00;100654.00;5245596;28;20061;-81
2023/12/12 00:50:38;;;;;;;21.77;6.87;;;;;;;5.90;100.00;100653.13;5245255;28;20034;-81
2023/12/12 00:53:10;;;;;;;19.35;6.88;;;;;;;5.86;100.00;100651.38;5245084;28;20087;-81
2023/12/12 00:55:41;;;;;;;17.40;6.27;;;;;;;5.83;100.00;100652.22;5244845;28;20476;-80
2023/12/12 00:58:12;;;;;;;20.90;6.37;;;;;;;5.78;100.00;100653.94;5245127;28;20472;-81
2023/12/12 01:00:44;;;;;;;25.93;6.60;;;;;;;5.80;100.00;100654.78;5245135;28;20112;-81
2023/12/12 01:03:15;;;;;;;17.27;5.33;;;;;;;5.78;100.00;100653.94;5245123;28;20057;-81
2023/12/12 01:05:46;;;;;;;18.40;6.30;;;;;;;5.84;100.00;100645.31;5244924;28;20410;-82
2023/12/12 01:08:18;;;;;;;24.40;6.20;;;;;;;5.77;100.00;100641.84;5244495;28;20124;-80
2023/12/12 01:10:49;;;;;;;25.50;7.87;;;;;;;5.66;100.00;100639.19;5244967;28;20064;-80
2023/12/12 01:13:20;;;;;;;20.40;6.10;;;;;;;5.65;100.00;100642.66;5243430;28;20044;-81
2023/12/12 01:15:52;;;;;;;22.40;7.07;;;;;;;5.58;100.00;100647.78;5243955;28;20033;-81
2023/12/12 01:18:23;;;;;;;25.77;7.43;;;;;;;5.47;100.00;100642.56;5243433;28;20029;-80
2023/12/12 01:20:54;;;;;;;26.90;7.97;;;;;;;5.41;100.00;100637.34;5244643;28;20041;-79
2023/12/12 01:23:26;;;;;;;22.73;6.67;;;;;;;5.28;100.00;100632.13;5244776;28;20029;-80
2023/12/12 01:25:57;;;;;;;28.83;7.23;;;;;;;5.23;100.00;100638.09;5244436;28;20377;-80
2023/12/12 01:28:29;;;;;;;24.03;7.80;;;;;;;5.15;100.00;100622.53;5244654;28;20152;-81
2023/12/12 01:31:00;;;;;;;27.97;8.70;;;;;;;5.10;100.00;100622.53;5246590;28;20044;-80
2023/12/12 01:33:31;;;;;;;24.57;6.60;;;;;;;5.07;100.00;100625.09;5256762;28;20536;-81
2023/12/12 01:36:03;;;;;;;28.80;7.07;;;;;;;5.05;100.00;100624.19;5260839;28;20032;-81
2023/12/12 01:38:35;;;;;;;24.77;7.53;;;;;;;5.04;100.00;100612.13;5254178;28;20045;-81
2023/12/12 01:41:06;;;;;;;18.90;6.10;;;;;;;4.92;100.00;100619.78;5252546;28;20030;-80
2023/12/12 01:43:38;;;;;;;25.03;8.03;;;;;;;4.86;100.00;100607.72;5250343;28;20075;-79
2023/12/12 01:46:14;;;;;;;27.00;6.23;;;;;;;4.85;100.00;100620.59;5245497;28;20034;-79
2023/12/12 01:48:47;;;;;;;21.67;6.88;;;;;;;4.83;100.00;100622.28;5243828;28;20349;-80
2023/12/12 01:51:19;;;;;;;28.85;8.38;;;;;;;4.81;100.00;100626.59;5243781;28;20048;-81
2023/12/12 01:53:52;;;;;;;26.52;7.22;;;;;;;4.85;100.00;100625.78;5243543;28;20508;-81
2023/12/12 01:56:23;;;;;;;29.55;7.38;;;;;;;4.88;100.00;100616.31;5243997;28;20041;-80
2023/12/12 01:58:57;;;;;;;33.03;7.57;;;;;;;4.89;100.00;100623.22;5242784;28;20555;-79
2023/12/12 02:01:29;;;;;;;32.55;7.50;;;;;;;4.83;100.00;100625.75;5243633;28;20053;-80
2023/12/12 02:04:01;;;;;;;27.45;7.22;;;;;;;4.87;100.00;100618.91;5242338;28;20073;-80
2023/12/12 02:06:33;;;;;;;30.37;7.30;;;;;;;4.89;100.00;100622.34;5243561;28;20061;-80
2023/12/12 02:09:04;;;;;;;35.47;9.13;;;;;;;4.88;100.00;100620.63;5242927;28;20057;-82
2023/12/12 02:11:36;;;;;;;29.93;9.00;;;;;;;4.80;100.00;100623.16;5243394;28;20033;-81
2023/12/12 02:14:09;;;;;;;33.90;8.77;;;;;;;4.81;100.00;100624.00;5243789;28;20030;-81
2023/12/12 02:16:40;;;;;;;31.92;8.65;;;;;;;4.80;100.00;100615.41;5255211;28;20049;-80
2023/12/12 02:19:12;;;;;;;32.27;7.27;;;;;;;4.77;100.00;100611.94;5255643;28;20068;-80
2023/12/12 02:21:43;;;;;;;40.17;9.37;;;;;;;4.76;100.00;100611.06;5254620;28;20030;-80
2023/12/12 02:24:14;;;;;;;32.87;8.10;;;;;;;4.80;100.00;100614.50;5251549;28;20026;-80
2023/12/12 02:26:46;;;;;;;38.73;9.43;;;;;;;4.76;100.00;100605.88;5252206;28;20037;-81
2023/12/12 02:29:17;;;;;;;34.33;9.20;;;;;;;4.74;100.00;100597.28;5251996;28;20032;-81
2023/12/12 02:31:49;;;;;;;28.53;8.57;;;;;;;4.73;100.00;100598.09;5249886;28;20449;-81
2023/12/12 02:34:20;;;;;;;38.17;9.97;;;;;;;4.70;100.00;100605.84;5250065;28;20029;-80
2023/12/12 02:36:52;;;;;;;52.17;9.63;;;;;;;4.66;100.00;100598.94;5245260;28;20025;-80
2023/12/12 02:39:23;;;;;;;34.67;8.03;;;;;;;4.64;100.00;100595.47;5243420;28;20036;-80
2023/12/12 02:41:54;;;;;;;37.97;9.83;;;;;;;4.59;100.00;100591.97;5244094;28;20025;-79
2023/12/12 02:44:26;;;;;;;33.60;8.17;;;;;;;4.60;100.00;100588.53;5243482;28;20030;-80
2023/12/12 02:46:57;;;;;;;48.33;11.47;;;;;;;4.61;100.00;100591.13;5242225;28;20484;-80
2023/12/12 02:49:29;;;;;;;34.43;9.83;;;;;;;4.59;100.00;100598.00;5243533;28;20352;-81
2023/12/12 02:52:00;;;;;;;37.17;9.53;;;;;;;4.58;100.00;100593.69;5234768;28;20035;-82
2023/12/12 02:54:31;;;;;;;38.33;8.23;;;;;;;4.54;100.00;100599.66;5138724;28;20042;-80
2023/12/12 02:57:03;;;;;;;35.33;8.83;;;;;;;4.52;100.00;100598.78;5137926;29;20028;-81
2023/12/12 02:59:34;;;;;;;36.73;10.03;;;;;;;4.52;100.00;100586.78;5138922;29;20047;-81
2023/12/12 03:02:06;;;;;;;43.37;9.20;;;;;;;4.57;100.00;100590.25;5139068;28;20035;-81
2023/12/12 03:04:42;;;;;;;33.23;8.23;;;;;;;4.54;100.00;100597.09;5138749;29;20474;-82
2023/12/12 03:07:13;;;;;;;36.72;8.60;;;;;;;4.54;100.00;100591.91;5138324;29;20142;-81
2023/12/12 03:09:45;;;;;;;42.23;10.87;;;;;;;4.53;100.00;100593.66;5139324;28;20463;-81
2023/12/12 03:12:17;;;;;;;50.40;9.37;;;;;;;4.54;100.00;100589.34;5137466;28;20070;-81
2023/12/12 03:14:49;;;;;;;40.00;8.70;;;;;;;4.54;100.00;100585.06;5138557;29;20047;-80
2023/12/12 03:17:20;;;;;;;37.40;9.52;;;;;;;4.48;100.00;100571.25;5138377;29;20295;-80
2023/12/12 03:19:52;;;;;;;37.27;8.20;;;;;;;4.41;100.00;100574.59;5138609;28;20062;-81
2023/12/12 03:22:23;;;;;;;43.17;8.43;;;;;;;4.36;100.00;100572.88;5137538;28;20090;-81
2023/12/12 03:24:55;;;;;;;39.63;9.13;;;;;;;4.30;100.00;100570.22;5139073;29;20059;-80
2023/12/12 03:27:26;;;;;;;29.37;8.43;;;;;;;4.27;100.00;100564.19;5121830;28;20078;-81
2023/12/12 03:29:58;;;;;;;36.13;9.27;;;;;;;4.30;100.00;100566.75;5139811;29;20031;-81
2023/12/12 03:32:30;;;;;;;35.37;10.10;;;;;;;4.27;100.00;100567.59;5144106;28;20046;-81
2023/12/12 03:35:01;;;;;;;47.77;8.30;;;;;;;4.22;100.00;100569.28;5154030;29;20024;-82
2023/12/12 03:37:33;;;;;;;43.53;9.10;;;;;;;4.24;100.00;100574.47;5155664;29;20280;-81
2023/12/12 03:40:05;;;;;;;46.10;9.63;;;;;;;4.25;100.00;100558.13;5157957;29;20066;-83
2023/12/12 03:42:36;;;;;;;43.17;10.40;;;;;;;4.25;100.00;100563.28;5156870;28;20122;-81
2023/12/12 03:45:08;;;;;;;36.73;9.67;;;;;;;4.29;100.00;100563.31;5148352;28;20036;-83
2023/12/12 03:47:40;;;;;;;44.00;9.52;;;;;;;4.29;100.00;100557.31;5140338;29;20106;-82
2023/12/12 03:50:11;;;;;;;33.03;9.87;;;;;;;4.29;100.00;100541.81;5138390;29;20107;-82
2023/12/12 03:52:42;;;;;;;45.27;9.70;;;;;;;4.32;100.00;100531.53;5138470;28;20032;-82
2023/12/12 03:55:14;;;;;;;42.17;10.77;;;;;;;4.36;100.00;100536.72;5137867;28;20047;-82
2023/12/12 03:57:45;;;;;;;33.77;10.27;;;;;;;4.40;100.00;100526.44;5138380;28;20394;-82
2023/12/12 04:00:16;;;;;;;46.50;10.13;;;;;;;4.41;100.00;100531.59;5137979;29;20046;-82
2023/12/12 04:02:48;;;;;;;48.77;10.93;;;;;;;4.44;100.00;100520.44;5136882;28;20434;-82
2023/12/12 04:05:19;;;;;;;42.43;10.40;;;;;;;4.50;100.00;100526.50;5137831;28;20024;-82
2023/12/12 04:07:50;;;;;;;47.80;11.93;;;;;;;4.58;100.00;100518.81;5104667;28;20387;-82
2023/12/12 04:10:22;;;;;;;45.93;12.00;;;;;;;4.64;100.00;100512.84;5137857;29;20062;-83
2023/12/12 04:12:53;;;;;;;51.53;12.07;;;;;;;4.70;100.00;100518.94;5136960;28;20129;-81
2023/12/12 04:15:25;;;;;;;37.23;11.13;;;;;;;4.74;100.00;100515.50;5137982;28;20425;-82
2023/12/12 04:17:56;;;;;;;43.23;11.47;;;;;;;4.78;100.00;100508.63;5137867;28;20063;-80
2023/12/12 04:20:28;;;;;;;47.23;13.20;;;;;;;4.80;100.00;100501.78;5137996;28;20032;-82
2023/12/12 04:22:59;;;;;;;54.60;12.70;;;;;;;4.84;100.00;100506.09;5138069;28;20028;-82
2023/12/12 04:25:30;;;;;;;52.43;12.97;;;;;;;4.89;100.00;100509.59;5137921;28;20028;-81
2023/12/12 04:28:02;;;;;;;41.63;12.23;;;;;;;4.92;100.00;100509.56;5137895;28;20363;-82
2023/12/12 04:30:33;;;;;;;47.93;13.20;;;;;;;4.93;100.00;100500.13;5136841;28;20035;-82
2023/12/12 04:33:05;;;;;;;46.73;12.53;;;;;;;4.97;100.00;100507.03;5138330;29;20032;-82
2023/12/12 04:35:38;;;;;;;53.13;13.83;;;;;;;4.99;100.00;100505.34;5139067;28;20032;-83
2023/12/12 04:38:09;;;;;;;46.20;11.10;;;;;;;5.01;100.00;100510.50;5138487;28;20117;-82
2023/12/12 04:40:40;;;;;;;49.93;13.87;;;;;;;5.04;100.00;100513.97;5143378;28;20036;-82
2023/12/12 04:43:12;;;;;;;46.30;12.30;;;;;;;5.05;100.00;100513.09;5129646;28;20112;-83
2023/12/12 04:45:43;;;;;;;52.83;13.47;;;;;;;5.07;100.00;100502.75;5146403;28;20056;-81
2023/12/12 04:48:15;;;;;;;48.30;11.97;;;;;;;5.08;100.00;100499.34;5151981;29;20471;-82
2023/12/12 04:50:46;;;;;;;53.13;11.87;;;;;;;5.10;100.00;100498.50;5158418;28;20059;-80
2023/12/12 04:53:18;;;;;;;53.60;13.73;;;;;;;5.11;100.00;100495.03;5159687;29;20086;-80
2023/12/12 04:55:49;;;;;;;58.73;13.43;;;;;;;5.14;100.00;100489.03;5155486;29;20039;-80
2023/12/12 04:58:20;;;;;;;49.40;12.93;;;;;;;5.15;100.00;100482.13;5138317;29;20028;-81
2023/12/12 05:00:52;;;;;;;55.03;12.50;;;;;;;5.20;100.00;100493.34;5138011;28;20035;-81
2023/12/12 05:03:23;;;;;;;55.30;13.13;;;;;;;5.22;100.00;100491.66;5137984;29;20566;-82
2023/12/12 05:05:54;;;;;;;51.40;12.83;;;;;;;5.23;100.00;100483.03;5152656;28;20040;-80
2023/12/12 05:08:26;;;;;;;45.67;12.90;;;;;;;5.25;100.00;100486.50;5136868;28;20052;-81
2023/12/12 05:10:58;;;;;;;45.00;12.90;;;;;;;5.26;100.00;100478.75;5137397;28;20531;-82
2023/12/12 05:13:30;;;;;;;56.67;12.38;;;;;;;5.29;100.00;100480.47;5137458;29;20130;-81
2023/12/12 05:16:01;;;;;;;49.30;12.23;;;;;;;5.30;100.00;100482.22;5140481;29;20115;-81
2023/12/12 05:18:32;;;;;;;45.67;10.90;;;;;;;5.33;100.00;100479.66;5140767;29;20032;-81
2023/12/12 05:21:04;;;;;;;50.37;12.50;;;;;;;5.38;100.00;100477.09;5139307;28;20119;-81
2023/12/12 05:23:36;;;;;;;52.57;12.00;;;;;;;5.40;100.00;100463.28;5141073;29;20046;-82
2023/12/12 05:26:07;;;;;;;47.13;12.37;;;;;;;5.42;100.00;100458.13;5141950;28;20386;-81
2023/12/12 05:28:38;;;;;;;53.90;13.10;;;;;;;5.44;100.00;100459.88;5141962;28;20046;-81
2023/12/12 05:31:10;;;;;;;42.43;13.70;;;;;;;5.46;100.00;100460.72;5140681;28;20036;-81
2023/12/12 05:33:41;;;;;;;64.07;13.63;;;;;;;5.48;100.00;100455.56;5140747;28;20042;-80
2023/12/12 05:36:12;;;;;;;52.73;11.93;;;;;;;5.51;100.00;100467.66;5140297;29;20028;-80
2023/12/12 05:38:44;;;;;;;43.67;12.27;;;;;;;5.52;100.00;100459.88;5140176;28;20031;-82
2023/12/12 05:41:15;;;;;;;54.90;13.13;;;;;;;5.54;100.00;100463.34;5140413;28;20044;-79
2023/12/12 05:43:47;;;;;;;45.97;11.77;;;;;;;5.56;100.00;100455.59;5139899;28;20047;-80
2023/12/12 05:46:18;;;;;;;46.43;13.50;;;;;;;5.55;100.00;100459.03;5140806;28;20163;-80
2023/12/12 05:48:49;;;;;;;46.53;12.60;;;;;;;5.54;100.00;100454.69;5140597;28;20123;-80
2023/12/12 05:51:21;;;;;;;52.47;12.10;;;;;;;5.55;100.00;100464.19;5140366;28;20031;-81
2023/12/12 05:53:52;;;;;;;51.37;11.17;;;;;;;5.57;100.00;100465.06;5139571;28;20036;-80
2023/12/12 05:56:23;;;;;;;48.10;12.07;;;;;;;5.58;100.00;100459.03;5140140;28;20340;-81
2023/12/12 05:58:55;;;;;;;50.47;12.47;;;;;;;5.60;100.00;100457.31;5140417;28;20520;-80
2023/12/12 06:01:26;;;;;;;39.87;10.07;;;;;;;5.61;100.00;100461.63;5140063;28;20043;-81
2023/12/12 06:03:58;;;;;;;52.67;12.87;;;;;;;5.62;100.00;100463.38;5140213;28;20066;-80
2023/12/12 06:06:29;;;;;;;46.67;11.38;;;;;;;5.64;100.00;100459.06;5140183;28;20050;-81
2023/12/12 06:09:01;;;;;;;57.63;12.80;;;;;;;5.68;100.00;100449.56;5138178;28;20406;-81
2023/12/12 06:11:32;;;;;;;49.53;11.73;;;;;;;5.71;100.00;100455.59;5139873;29;20066;-81
2023/12/12 06:14:03;;;;;;;45.63;11.80;;;;;;;5.73;100.00;100450.44;5140222;28;20032;-80
2023/12/12 06:16:35;;;;;;;57.90;13.07;;;;;;;5.73;100.00;100453.91;5138800;28;20032;-80
2023/12/12 06:19:06;;;;;;;54.63;13.57;;;;;;;5.76;100.00;100443.53;5138602;28;20042;-79
2023/12/12 06:21:38;;;;;;;40.13;10.10;;;;;;;5.76;100.00;100443.53;5140394;29;20020;-80
2023/12/12 06:24:09;;;;;;;45.30;10.80;;;;;;;5.78;100.00;100446.13;5139161;28;20039;-79
2023/12/12 06:26:40;;;;;;;51.07;11.17;;;;;;;5.79;100.00;100435.78;5139821;29;20032;-80
2023/12/12 06:29:12;;;;;;;48.23;11.50;;;;;;;5.75;100.00;100431.50;5147514;28;20032;-79
2023/12/12 06:31:44;;;;;;;45.60;12.05;;;;;;;5.74;100.00;100424.56;5152906;28;20058;-80
2023/12/12 06:34:15;;;;;;;39.70;10.47;;;;;;;5.77;100.00;100418.56;5144138;28;20202;-80
2023/12/12 06:36:47;;;;;;;51.73;15.87;;;;;;;5.76;100.00;100416.81;5139447;28;20028;-80
2023/12/12 06:39:18;;;;;;;44.90;11.40;;;;;;;5.76;100.00;100412.50;5138970;28;20105;-79
2023/12/12 06:41:49;;;;;;;43.57;9.97;;;;;;;5.80;100.00;100413.38;5140861;28;20074;-79
2023/12/12 06:44:21;;;;;;;42.87;11.43;;;;;;;5.79;100.00;100411.66;5138938;28;20031;-80
2023/12/12 06:46:52;;;;;;;47.90;10.57;;;;;;;5.76;100.00;100402.16;5139091;29;20034;-81
2023/12/12 06:49:23;;;;;;;44.60;11.17;;;;;;;5.75;100.00;100400.44;5138854;28;20394;-79
2023/12/12 06:51:55;;;;;;;34.57;10.80;;;;;;;5.76;100.00;100399.56;5138859;28;20031;-78
2023/12/12 06:54:27;;;;;;;38.73;11.67;;;;;;;5.76;100.00;100394.41;5139431;28;20036;-79
2023/12/12 06:56:58;;;;;;;44.47;10.93;;;;;;;5.76;100.00;100385.78;5138946;29;20032;-80
2023/12/12 06:59:30;;;;;;;41.57;11.07;;;;;;;5.72;100.00;100377.16;5139196;28;20071;-80
2023/12/12 07:02:01;;;;;;;41.60;12.37;;;;;;;5.70;100.00;100383.19;5139259;28;20024;-79
2023/12/12 07:04:33;;;;;;;44.00;10.83;;;;;;;5.70;100.00;100378.00;5138685;28;20063;-79
2023/12/12 07:07:04;;;;;;;50.80;10.20;;;;;;;5.68;100.00;100377.16;5139109;28;20055;-78
2023/12/12 07:09:36;;;;;;;55.23;11.20;;;;;;;5.66;100.00;100372.84;5136710;28;20063;-78
2023/12/12 07:12:07;;;;;;;32.73;9.90;;;;;;;5.68;100.00;100378.00;5139057;29;20040;-78
2023/12/12 07:14:40;;;;;;;44.60;11.37;;;;;;;5.69;100.00;100374.56;5138529;29;20090;-79
2023/12/12 07:17:12;;;;;;;45.65;11.02;;;;;;;5.76;100.00;100375.44;5138957;29;20027;-79
2023/12/12 07:19:44;;;;;;;46.23;12.63;;;;;;;5.82;100.00;100375.44;5137234;28;20502;-80
2023/12/12 07:22:15;;;;;;;43.17;10.80;;;;;;;5.91;100.00;100382.34;5138593;28;20170;-80
2023/12/12 07:24:46;;;;;;;53.10;11.67;;;;;;;5.98;100.00;100378.94;5137925;28;20035;-80
2023/12/12 07:27:18;;;;;;;49.50;11.47;;;;;;;6.02;100.00;100370.28;5137321;28;20043;-79
2023/12/12 07:29:49;;;;;;;40.63;12.30;;;;;;;6.07;100.00;100365.09;5138574;28;20035;-79
2023/12/12 07:32:21;;;;;;;46.70;10.10;;;;;;;6.13;100.00;100375.47;5138748;29;20075;-78
2023/12/12 07:34:53;;;;;;;34.63;9.53;;;;;;;6.17;100.00;100374.59;5138848;29;20035;-79
2023/12/12 07:37:24;;;;;;;46.15;12.90;;;;;;;6.18;100.00;100372.00;5137698;29;20024;-78
2023/12/12 07:39:56;;;;;;;42.03;11.20;;;;;;;6.25;100.00;100374.56;5138602;29;20036;-78
2023/12/12 07:42:28;;;;;;;36.90;10.47;;;;;;;6.29;100.00;100371.13;5138452;28;20039;-78
2023/12/12 07:44:59;;;;;;;40.60;10.80;;;;;;;6.32;100.00;100356.44;5138194;29;20085;-79
2023/12/12 07:47:31;;;;;;;46.63;11.67;;;;;;;6.34;100.00;100352.16;5138509;29;20439;-78
2023/12/12 07:50:05;;;;;;;44.57;11.67;;;;;;;6.39;100.00;100349.50;5138629;29;20071;-79
2023/12/12 07:52:37;;;;;;;46.15;11.02;;;;;;;6.42;100.00;100349.50;5138429;29;20123;-79
2023/12/12 07:55:08;;;;;;;33.87;9.03;;;;;;;6.42;100.00;100336.56;5138478;28;20035;-78
2023/12/12 07:57:40;;;;;;;43.07;9.37;;;;;;;6.37;100.00;100335.72;5138172;28;20439;-78
2023/12/12 08:00:12;;;;;;;38.07;9.83;;;;;;;6.38;100.00;100337.47;5137013;28;20422;-79
2023/12/12 08:02:43;;;;;;;32.70;9.20;;;;;;;6.38;100.00;100343.50;5138629;28;20048;-79
2023/12/12 08:05:15;;;;;;;45.00;11.43;;;;;;;6.42;100.00;100335.72;5145231;29;20133;-80
2023/12/12 08:07:48;;;;;;;46.00;10.83;;;;;;;6.42;100.00;100333.97;5151879;28;20032;-79
2023/12/12 08:10:19;;;;;;;48.55;10.45;;;;;;;6.43;100.00;100330.53;5147513;28;20052;-79
2023/12/12 08:12:51;;;;;;;35.40;9.87;;;;;;;6.44;100.00;100336.56;5138424;28;20043;-79
2023/12/12 08:15:22;;;;;;;35.13;8.77;;;;;;;6.46;100.00;100329.69;5137923;28;20122;-80
2023/12/12 08:17:53;;;;;;;30.77;10.67;;;;;;;6.48;100.00;100326.19;5138211;29;20032;-80
2023/12/12 08:20:25;;;;;;;37.37;9.27;;;;;;;6.50;100.00;100313.25;5138372;28;20101;-79
2023/12/12 08:22:57;;;;;;;36.70;9.07;;;;;;;6.51;100.00;100312.38;5138157;29;20408;-78
2023/12/12 08:25:28;;;;;;;41.37;9.33;;;;;;;6.55;100.00;100314.09;5138327;29;20114;-78
2023/12/12 08:28:00;;;;;;;36.70;10.43;;;;;;;6.60;100.00;100308.88;5138150;29;20063;-79
2023/12/12 08:30:31;;;;;;;27.13;8.50;;;;;;;6.64;100.00;100302.84;5136634;28;20386;-79
2023/12/12 08:33:03;;;;;;;38.60;8.53;;;;;;;6.71;100.00;100307.09;5138076;28;20063;-79
2023/12/12 08:35:36;;;;;;;33.33;8.07;;;;;;;6.73;100.00;100295.88;5137973;28;20042;-78
2023/12/12 08:38:07;;;;;;;30.20;8.00;;;;;;;6.83;100.00;100301.03;5137236;28;20036;-78
2023/12/12 08:40:38;;;;;;;29.23;7.73;;;;;;;6.92;100.00;100304.44;5137815;29;20409;-79
2023/12/12 08:43:10;;;;;;;28.57;7.57;;;;;;;7.09;100.00;100303.47;5136712;28;20094;-80
2023/12/12 08:45:43;;;;;;;27.10;7.87;;;;;;;7.27;100.00;100303.31;5137827;29;20402;-81
2023/12/12 08:48:16;;;;;;;31.70;8.48;;;;;;;7.49;100.00;100293.66;5140086;29;20406;-79
2023/12/12 08:50:50;;;;;;;27.80;8.13;;;;;;;7.69;100.00;100297.81;5148923;29;20043;-80
2023/12/12 08:53:26;;;;;;;22.50;6.03;;;;;;;7.85;100.00;100301.13;5148374;28;20035;-78
2023/12/12 08:55:58;;;;;;;27.85;7.90;;;;;;;8.04;100.00;100307.88;5150478;29;20042;-79
2023/12/12 08:58:29;;;;;;;26.17;7.37;;;;;;;8.16;100.00;100300.81;5150482;28;20039;-78
2023/12/12 09:01:00;;;;;;;20.27;5.70;;;;;;;8.40;100.00;100300.56;5149420;28;20043;-78
2023/12/12 09:03:32;;;;;;;17.30;5.20;;;;;;;8.49;100.00;100288.38;5136188;28;20085;-79
2023/12/12 09:06:04;;;;;;;20.00;6.37;;;;;;;8.67;100.00;100295.09;5148301;29;20075;-79
2023/12/12 09:08:35;;;;;;;21.23;7.37;;;;;;;8.81;100.00;100276.72;5146023;29;20055;-79
2023/12/12 09:11:08;;;;;;;17.67;5.80;;;;;;;8.91;100.00;100273.94;5156036;29;20118;-80
2023/12/12 09:13:43;;;;;;;19.70;6.00;;;;;;;9.06;100.00;100274.63;5155588;29;20031;-79
2023/12/12 09:16:14;;;;;;;16.35;5.60;;;;;;;9.18;100.00;100265.78;5149536;28;20031;-79
2023/12/12 09:18:45;;;;;;;16.73;6.73;;;;;;;9.29;100.00;100262.13;5151988;29;20142;-80
2023/12/12 09:21:17;;;;;;;18.53;4.93;;;;;;;9.45;100.00;100265.34;5156411;29;20072;-79
2023/12/12 09:23:48;;;;;;;21.93;5.73;;;;;;;9.66;100.00;100256.31;5155615;29;20035;-78
2023/12/12 09:26:20;;;;;;;25.30;7.57;;;;;;;9.79;100.00;100258.72;5156827;29;20058;-79
2023/12/12 09:28:51;;;;;;;20.13;6.17;;;;;;;10.02;100.00;100260.88;5150934;28;20042;-79
2023/12/12 09:31:27;;;;;;;21.77;5.57;;;;;;;10.16;100.00;100260.63;5140712;28;20032;-80
2023/12/12 09:33:58;;;;;;;21.42;5.55;;;;;;;10.32;100.00;100261.16;5155152;28;20046;-80
2023/12/12 09:36:30;;;;;;;14.63;5.67;;;;;;;10.69;100.00;100265.63;5139483;29;20541;-80
2023/12/12 09:39:06;;;;;;;21.30;5.90;;;;;;;10.95;100.00;100258.09;5139785;29;20487;-80
2023/12/12 09:41:38;;;;;;;20.83;5.45;;;;;;;11.04;100.00;100258.78;5140453;28;20125;-82
2023/12/12 09:44:10;;;;;;;14.60;5.50;;;;;;;11.22;100.00;100255.75;5139378;28;20047;-81
2023/12/12 09:46:46;;;;;;;;;;;;;;;11.80;100.00;100255.16;5139317;28;20034;-81
2023/12/12 09:49:18;;;;;;;16.20;5.03;;;;;;;11.46;98.44;100253.41;5139613;28;19911;-81
2023/12/12 09:51:52;;;;;;;18.20;4.88;;;;;;;11.28;99.24;100244.28;5139719;29;20047;-80
2023/12/12 09:54:24;;;;;;;18.02;5.80;;;;;;;10.91;99.67;100237.34;5139915;29;20042;-81
2023/12/12 09:56:56;;;;;;;13.30;4.32;;;;;;;10.75;100.00;100235.09;5140326;29;20036;-80
2023/12/12 09:59:27;;;;;;;16.87;4.77;;;;;;;10.61;100.00;100221.50;5140024;28;20452;-79
2023/12/12 10:01:59;;;;;;;17.83;5.73;;;;;;;10.46;100.00;100217.47;5138742;29;20086;-79
2023/12/12 10:04:31;;;;;;;14.57;4.30;;;;;;;10.49;100.00;100204.38;5139686;28;20036;-79
2023/12/12 10:07:05;;;;;;;15.75;4.75;;;;;;;10.59;100.00;100207.63;5140037;29;20718;-80
2023/12/12 10:09:37;;;;;;;12.90;4.50;;;;;;;10.66;100.00;100206.63;5139284;29;20056;-80
2023/12/12 10:12:08;;;;;;;13.53;4.23;;;;;;;10.76;100.00;100194.22;5140001;29;20062;-80
2023/12/12 10:14:41;;;;;;;11.27;4.27;;;;;;;11.18;100.00;100188.88;5139607;29;20039;-80
2023/12/12 10:17:13;;;;;;;17.15;4.78;;;;;;;11.53;99.07;100183.63;5137946;28;20490;-79
2023/12/12 10:19:57;;;;;;;12.15;4.22;;;;;;;11.95;97.13;100183.41;5139355;29;20031;-79
2023/12/12 10:22:30;;;;;;;13.48;3.35;;;;;;;12.24;93.68;100177.34;5139677;29;20031;-81
2023/12/12 10:25:13;;;;;;;10.25;3.25;;;;;;;12.56;93.69;100173.75;5139510;28;20051;-80
2023/12/12 10:27:45;;;;;;;;;;;;;;;12.93;90.62;100179.59;5140022;28;20036;-82
2023/12/12 10:30:16;;;;;;;10.95;3.90;;;;;;;13.27;91.36;100174.09;5139283;28;19982;-80
2023/12/12 10:32:51;;;;;;;12.50;4.77;;;;;;;13.40;86.97;100174.56;5122982;28;20086;-80
2023/12/12 10:35:24;;;;;;;10.57;3.50;;;;;;;13.53;85.54;100185.47;5139079;28;20379;-81
2023/12/12 10:37:55;;;;;;;8.02;3.00;;;;;;;13.37;85.44;100163.38;5138840;28;20455;-80
2023/12/12 10:40:26;;;;;;;10.07;3.63;;;;;;;13.39;84.99;100169.41;5139697;29;20086;-81
2023/12/12 10:42:59;;;;;;;10.67;3.37;;;;;;;13.54;83.77;100157.53;5139625;29;20058;-81
2023/12/12 10:45:32;;;;;;;8.27;3.35;;;;;;;13.46;85.15;100156.03;5139360;28;20043;-80
2023/12/12 10:48:07;;;;;;;8.20;3.17;;;;;;;13.53;85.17;100153.22;5139011;28;20110;-80
2023/12/12 10:50:43;;;;;;;9.85;2.80;;;;;;;13.43;85.76;100147.44;5140110;28;20043;-80
2023/12/12 10:53:16;;;;;;;10.10;3.38;;;;;;;13.26;85.20;100153.22;5139177;29;20034;-81
2023/12/12 10:55:49;;;;;;;9.05;3.20;;;;;;;12.72;87.13;100139.31;5138933;28;20036;-81
2023/12/12 10:58:21;;;;;;;8.32;2.33;;;;;;;12.15;90.49;100138.44;5139349;29;20403;-79
2023/12/12 11:00:53;;;;;;;7.18;2.60;;;;;;;12.11;92.61;100137.66;5139974;29;20035;-82
2023/12/12 11:03:25;;;;;;;9.07;3.40;;;;;;;11.93;92.66;100128.63;5139701;29;20043;-82
2023/12/12 11:05:58;;;;;;;8.53;2.83;;;;;;;11.73;93.59;100118.69;5139792;29;20039;-80
2023/12/12 11:08:30;;;;;;;9.38;3.78;;;;;;;11.47;94.42;100112.44;5139175;28;20058;-81
2023/12/12 11:11:08;;;;;;;12.07;4.00;;;;;;;11.34;96.18;100103.25;5138821;28;20032;-81
2023/12/12 11:13:43;;;;;;;7.22;2.42;;;;;;;11.14;97.12;100103.78;5138195;28;20475;-79
2023/12/12 11:16:15;;;;;;;9.27;3.38;;;;;;;11.24;97.66;100091.34;5138736;28;20114;-82
2023/12/12 11:18:47;;;;;;;10.63;3.08;;;;;;;11.43;97.90;100086.47;5139360;28;20106;-80
2023/12/12 11:21:50;;;;;;;8.07;2.65;;;;;;;11.54;97.58;100079.19;5140101;28;20035;-80
2023/12/12 11:24:41;;;;;;;12.85;3.53;;;;;;;11.52;97.12;100082.75;5140552;28;20024;-80
2023/12/12 11:27:12;;;;;;;12.93;3.10;;;;;;;11.51;97.53;100081.88;5140168;28;20043;-80
2023/12/12 11:29:45;;;;;;;9.07;3.27;;;;;;;11.37;97.11;100077.06;5141478;29;20035;-79
2023/12/12 11:32:18;;;;;;;7.88;3.05;;;;;;;11.14;98.28;100077.69;5138848;29;20035;-81
2023/12/12 11:34:51;;;;;;;8.05;2.85;;;;;;;11.01;99.35;100071.94;5139455;28;20569;-81